createdAt,value
2019-02-21T00:02:11.932Z,16.00
2019-02-21T00:04:44.420Z,17.40
2019-02-21T00:07:15.940Z,17.20
2019-02-21T00:09:47.402Z,17.43
2019-02-21T00:12:20.529Z,18.60
2019-02-21T00:14:52.101Z,17.37
2019-02-21T00:17:23.630Z,16.80
2019-02-21T00:19:55.214Z,16.50
2019-02-21T00:22:26.756Z,19.50
2019-02-21T00:24:58.356Z,19.00
2019-02-21T00:27:29.957Z,17.90
2019-02-21T00:30:01.574Z,18.20
2019-02-21T00:32:33.556Z,17.73
2019-02-21T00:35:05.036Z,17.47
2019-02-21T00:37:36.535Z,17.87
2019-02-21T00:40:08.324Z,18.90
2019-02-21T00:42:39.812Z,16.67
2019-02-21T00:45:11.261Z,18.87
2019-02-21T00:47:42.718Z,18.60
2019-02-21T00:50:18.078Z,18.27
2019-02-21T00:52:49.580Z,18.73
2019-02-21T00:55:21.048Z,19.33
2019-02-21T00:57:52.558Z,18.97
2019-02-21T01:00:24.063Z,17.10
2019-02-21T01:02:55.559Z,18.53
2019-02-21T01:05:27.031Z,17.40
2019-02-21T01:07:58.498Z,19.20
2019-02-21T01:10:30.009Z,17.20
2019-02-21T01:13:02.666Z,18.03
2019-02-21T01:15:34.424Z,20.10
2019-02-21T01:18:05.972Z,19.20
2019-02-21T01:20:37.480Z,16.80
2019-02-21T01:23:08.986Z,18.53
2019-02-21T01:25:40.484Z,17.10
2019-02-21T01:28:11.990Z,17.40
2019-02-21T01:30:44.897Z,16.80
2019-02-21T01:33:16.300Z,17.17
2019-02-21T01:35:47.763Z,17.50
2019-02-21T01:38:19.240Z,18.87
2019-02-21T01:40:50.731Z,18.27
2019-02-21T01:43:22.244Z,18.07
2019-02-21T01:45:53.718Z,17.73
2019-02-21T01:48:25.213Z,18.50
2019-02-21T01:50:56.682Z,19.20
2019-02-21T01:53:28.171Z,20.03
2019-02-21T01:55:59.642Z,18.70
2019-02-21T01:58:31.138Z,17.67
2019-02-21T02:01:08.527Z,17.47
2019-02-21T02:03:36.278Z,20.20
2019-02-21T02:06:07.816Z,19.03
2019-02-21T02:08:39.303Z,18.23
2019-02-21T02:11:11.962Z,19.27
2019-02-21T02:13:43.451Z,19.80
2019-02-21T02:16:16.259Z,18.47
2019-02-21T02:18:49.302Z,18.10
2019-02-21T02:21:20.757Z,18.07
2019-02-21T02:23:52.304Z,18.97
2019-02-21T02:26:23.830Z,18.80
2019-02-21T02:28:56.784Z,18.80
2019-02-21T02:31:28.261Z,20.03
2019-02-21T02:33:59.762Z,19.50
2019-02-21T02:36:31.466Z,18.10
2019-02-21T02:39:04.208Z,19.20
2019-02-21T02:41:37.253Z,19.93
2019-02-21T02:44:08.800Z,19.13
2019-02-21T02:46:40.251Z,20.20
2019-02-21T02:49:12.087Z,20.07
2019-02-21T02:51:46.303Z,22.73
2019-02-21T02:54:17.882Z,21.33
2019-02-21T02:56:49.382Z,21.47
2019-02-21T02:59:21.221Z,21.03
2019-02-21T03:01:52.729Z,20.90
2019-02-21T03:04:24.350Z,22.87
2019-02-21T03:06:55.825Z,20.37
2019-02-21T03:09:29.158Z,21.90
2019-02-21T03:12:00.575Z,23.13
2019-02-21T03:14:32.052Z,22.07
2019-02-21T03:17:03.593Z,21.50
2019-02-21T03:19:35.042Z,21.87
2019-02-21T03:22:06.584Z,20.30
2019-02-21T03:24:39.708Z,22.90
2019-02-21T03:27:11.154Z,20.30
2019-02-21T03:29:45.643Z,18.50
2019-02-21T03:32:17.312Z,22.30
2019-02-21T03:34:48.778Z,21.60
2019-02-21T03:37:20.236Z,21.43
2019-02-21T03:39:51.682Z,23.00
2019-02-21T03:42:23.125Z,23.70
2019-02-21T03:44:54.571Z,22.73
2019-02-21T03:47:26.059Z,21.27
2019-02-21T03:49:58.039Z,23.63
2019-02-21T03:52:29.491Z,21.20
2019-02-21T03:55:01.191Z,21.50
2019-02-21T03:57:32.857Z,23.50
2019-02-21T04:00:04.405Z,22.70
2019-02-21T04:02:36.034Z,22.37
2019-02-21T04:05:07.772Z,21.90
2019-02-21T04:07:39.265Z,20.70
2019-02-21T04:10:10.846Z,21.80
2019-02-21T04:12:42.315Z,23.07
2019-02-21T04:15:14.947Z,20.87
2019-02-21T04:17:46.389Z,20.83
2019-02-21T04:20:17.883Z,20.73
2019-02-21T04:22:49.339Z,22.70
2019-02-21T04:25:24.763Z,22.30
2019-02-21T04:27:56.231Z,20.57
2019-02-21T04:30:28.071Z,23.23
2019-02-21T04:32:59.585Z,23.77
2019-02-21T04:35:31.146Z,23.33
2019-02-21T04:38:02.631Z,22.93
2019-02-21T04:40:34.572Z,22.40
2019-02-21T04:43:06.211Z,22.23
2019-02-21T04:45:37.716Z,22.57
2019-02-21T04:48:09.581Z,22.80
2019-02-21T04:50:42.104Z,23.60
2019-02-21T04:53:13.684Z,22.87
2019-02-21T04:55:45.182Z,22.97
2019-02-21T04:58:17.732Z,23.17
2019-02-21T05:00:53.819Z,21.10
2019-02-21T05:03:25.275Z,21.90
2019-02-21T05:05:56.782Z,24.23
2019-02-21T05:08:28.236Z,23.07
2019-02-21T05:10:59.731Z,23.73
2019-02-21T05:13:33.802Z,22.30
2019-02-21T05:16:05.601Z,22.43
2019-02-21T05:18:37.148Z,24.63
2019-02-21T05:21:08.627Z,24.17
2019-02-21T05:23:40.078Z,22.50
2019-02-21T05:26:14.202Z,24.77
2019-02-21T05:28:47.374Z,24.30
2019-02-21T05:31:40.684Z,25.00
2019-02-21T05:34:29.901Z,24.87
2019-02-21T05:37:20.518Z,24.73
2019-02-21T05:40:09.858Z,24.13
2019-02-21T05:43:03.036Z,22.93
2019-02-21T05:45:52.275Z,22.03
2019-02-21T05:48:51.869Z,24.73
2019-02-21T05:51:29.366Z,25.53
2019-02-21T05:54:25.594Z,22.77
2019-02-21T05:57:09.526Z,25.47
2019-02-21T05:59:56.674Z,24.57
2019-02-21T06:02:38.128Z,23.63
2019-02-21T06:05:28.434Z,22.77
2019-02-21T06:08:17.508Z,22.80
2019-02-21T06:11:01.561Z,23.30
2019-02-21T06:13:47.418Z,24.10
2019-02-21T06:16:40.652Z,23.27
2019-02-21T06:19:28.216Z,23.10
2019-02-21T06:22:11.689Z,24.53
2019-02-21T06:24:52.714Z,22.70
2019-02-21T06:27:29.710Z,22.93
2019-02-21T06:30:08.747Z,23.30
2019-02-21T06:32:40.932Z,23.87
2019-02-21T06:35:12.642Z,24.40
2019-02-21T06:37:44.144Z,23.97
2019-02-21T06:40:15.605Z,24.30
2019-02-21T06:42:47.153Z,21.37
2019-02-21T06:45:18.698Z,24.87
2019-02-21T06:47:50.149Z,24.20
2019-02-21T06:50:26.772Z,23.00
2019-02-21T06:52:55.453Z,23.90
2019-02-21T06:55:26.965Z,24.47
2019-02-21T06:57:58.540Z,22.90
2019-02-21T07:00:33.050Z,23.90
2019-02-21T07:03:15.143Z,22.87
2019-02-21T07:05:38.973Z,23.53
2019-02-21T07:08:10.465Z,24.87
2019-02-21T07:10:41.975Z,25.63
2019-02-21T07:13:25.691Z,23.20
2019-02-21T07:15:47.042Z,23.67
2019-02-21T07:18:18.617Z,23.70
2019-02-21T07:20:50.081Z,22.33
2019-02-21T07:23:22.521Z,23.30
2019-02-21T07:26:06.464Z,24.63
2019-02-21T07:28:46.036Z,25.83
2019-02-21T07:31:28.181Z,23.67
2019-02-21T07:33:50.830Z,24.77
2019-02-21T07:36:22.244Z,24.47
2019-02-21T07:39:08.411Z,23.70
2019-02-21T07:41:45.966Z,24.20
2019-02-21T07:44:17.545Z,22.10
2019-02-21T07:46:49.035Z,23.10
2019-02-21T07:49:20.585Z,24.50
2019-02-21T07:51:52.165Z,23.40
2019-02-21T07:54:23.655Z,23.70
2019-02-21T07:56:55.129Z,24.80
2019-02-21T07:59:27.695Z,24.43
2019-02-21T08:01:59.212Z,23.23
2019-02-21T08:04:32.184Z,23.47
2019-02-21T08:07:03.714Z,25.13
2019-02-21T08:09:35.297Z,23.90
2019-02-21T08:12:07.676Z,25.63
2019-02-21T08:14:43.328Z,23.60
2019-02-21T08:17:16.193Z,22.33
2019-02-21T08:19:47.333Z,24.63
2019-02-21T08:22:18.843Z,24.37
2019-02-21T08:24:50.523Z,24.13
2019-02-21T08:27:21.981Z,25.37
2019-02-21T08:29:53.533Z,25.13
2019-02-21T08:32:30.769Z,23.47
2019-02-21T08:35:02.297Z,24.77
2019-02-21T08:37:36.025Z,23.43
2019-02-21T08:40:12.950Z,23.30
2019-02-21T08:42:44.626Z,24.97
2019-02-21T08:45:17.859Z,26.23
2019-02-21T08:47:49.853Z,21.17
2019-02-21T08:50:22.483Z,23.73
2019-02-21T08:52:54.165Z,26.40
2019-02-21T08:55:25.639Z,25.67
2019-02-21T08:57:58.555Z,22.90
2019-02-21T09:00:31.676Z,24.83
2019-02-21T09:03:03.465Z,24.67
2019-02-21T09:05:35.411Z,24.60
2019-02-21T09:08:19.940Z,24.60
2019-02-21T09:10:51.947Z,23.57
2019-02-21T09:13:24.052Z,22.90
2019-02-21T09:15:56.023Z,24.87
2019-02-21T09:18:27.729Z,24.60
2019-02-21T09:20:59.557Z,24.00
2019-02-21T09:23:31.192Z,25.90
2019-02-21T09:26:03.071Z,26.20
2019-02-21T09:28:34.623Z,24.60
2019-02-21T09:31:06.229Z,25.83
2019-02-21T09:33:37.881Z,26.23
2019-02-21T09:36:09.339Z,26.10
2019-02-21T09:38:40.825Z,23.97
2019-02-21T09:41:12.642Z,24.40
2019-02-21T09:43:44.185Z,26.83
2019-02-21T09:46:15.764Z,26.20
2019-02-21T09:48:47.313Z,23.90
2019-02-21T09:51:18.919Z,28.20
2019-02-21T09:53:50.369Z,23.00
2019-02-21T09:56:29.900Z,25.70
2019-02-21T09:58:55.116Z,21.33
2019-02-21T10:01:26.763Z,25.10
2019-02-21T10:03:58.371Z,23.40
2019-02-21T10:06:30.185Z,24.07
2019-02-21T10:09:01.992Z,24.30
2019-02-21T10:11:35.161Z,24.67
2019-02-21T10:14:06.672Z,23.57
2019-02-21T10:16:38.192Z,23.40
2019-02-21T10:19:09.839Z,23.23
2019-02-21T10:21:41.329Z,25.07
2019-02-21T10:24:13.909Z,23.53
2019-02-21T10:26:45.525Z,20.27
2019-02-21T10:29:17.012Z,25.33
2019-02-21T10:31:48.564Z,23.00
2019-02-21T10:34:21.855Z,24.57
2019-02-21T10:36:53.439Z,24.80
2019-02-21T10:39:24.899Z,26.13
2019-02-21T10:41:56.620Z,25.20
2019-02-21T10:44:28.279Z,23.73
2019-02-21T10:47:00.173Z,23.03
2019-02-21T10:49:31.685Z,25.00
2019-02-21T10:52:03.608Z,25.33
2019-02-21T10:54:36.736Z,24.83
2019-02-21T10:57:08.554Z,24.03
2019-02-21T10:59:46.769Z,24.50
2019-02-21T11:02:13.547Z,23.37
2019-02-21T11:04:54.420Z,26.93
2019-02-21T11:07:18.395Z,26.20
2019-02-21T11:09:49.926Z,21.13
2019-02-21T11:12:21.668Z,24.73
2019-02-21T11:14:53.204Z,23.47
2019-02-21T11:17:25.859Z,25.83
2019-02-21T11:19:57.593Z,25.77
2019-02-21T11:22:29.131Z,25.77
2019-02-21T11:25:00.678Z,26.00
2019-02-21T11:27:34.770Z,23.97
2019-02-21T11:30:09.490Z,24.93
2019-02-21T11:32:46.933Z,25.73
2019-02-21T11:35:18.768Z,26.20
2019-02-21T11:37:50.326Z,24.97
2019-02-21T11:40:21.854Z,26.43
2019-02-21T11:42:53.424Z,27.57
2019-02-21T11:45:24.996Z,26.50
2019-02-21T11:47:56.486Z,27.00
2019-02-21T11:50:27.960Z,27.13
2019-02-21T11:52:59.558Z,28.57
2019-02-21T11:55:32.541Z,28.00
2019-02-21T11:58:04.089Z,28.40
2019-02-21T12:00:38.220Z,28.90
2019-02-21T12:03:09.702Z,30.20
2019-02-21T12:05:41.214Z,28.93
2019-02-21T12:08:12.762Z,28.77
2019-02-21T12:10:44.292Z,28.57
2019-02-21T12:13:16.288Z,29.80
2019-02-21T12:15:48.978Z,32.23
2019-02-21T12:18:20.667Z,29.90
2019-02-21T12:20:55.507Z,32.13
2019-02-21T12:23:27.081Z,30.67
2019-02-21T12:25:58.561Z,32.43
2019-02-21T12:28:32.314Z,34.87
2019-02-21T12:31:03.783Z,31.77
2019-02-21T12:33:35.354Z,31.43
2019-02-21T12:36:07.022Z,31.77
2019-02-21T12:38:38.581Z,31.20
2019-02-21T12:41:10.288Z,29.50
2019-02-21T12:43:41.991Z,30.17
2019-02-21T12:46:13.546Z,29.63
2019-02-21T12:48:45.126Z,28.30
2019-02-21T12:51:16.810Z,34.00
2019-02-21T12:53:48.356Z,34.47
2019-02-21T12:56:19.842Z,32.00
2019-02-21T12:58:51.376Z,33.20
2019-02-21T13:01:22.913Z,31.20
2019-02-21T13:03:54.567Z,32.30
2019-02-21T13:06:26.058Z,32.40
2019-02-21T13:08:57.633Z,31.67
2019-02-21T13:11:29.236Z,32.30
2019-02-21T13:14:00.836Z,30.10
2019-02-21T13:16:32.479Z,31.03
2019-02-21T13:19:04.207Z,30.73
2019-02-21T13:21:35.696Z,30.33
2019-02-21T13:24:07.402Z,27.73
2019-02-21T13:26:38.888Z,28.50
2019-02-21T13:29:10.687Z,37.50
2019-02-21T13:31:42.471Z,28.80
2019-02-21T13:34:14.041Z,28.53
2019-02-21T13:36:47.696Z,30.03
2019-02-21T13:39:19.419Z,29.70
2019-02-21T13:41:52.534Z,31.80
2019-02-21T13:44:25.440Z,32.37
2019-02-21T13:46:57.957Z,34.40
2019-02-21T13:49:29.500Z,31.10
2019-02-21T13:52:01.019Z,31.10
2019-02-21T13:54:32.733Z,30.10
2019-02-21T13:57:04.381Z,30.77
2019-02-21T13:59:35.939Z,28.90
2019-02-21T14:02:07.757Z,31.17
2019-02-21T14:04:39.395Z,28.73
2019-02-21T14:07:11.061Z,30.17
2019-02-21T14:09:43.632Z,27.50
2019-02-21T14:12:15.190Z,28.40
2019-02-21T14:14:47.843Z,24.60
2019-02-21T14:17:19.384Z,25.30
2019-02-21T14:19:52.993Z,26.67
2019-02-21T14:22:24.143Z,29.23
2019-02-21T14:24:57.431Z,30.53
2019-02-21T14:27:31.753Z,29.53
2019-02-21T14:30:03.720Z,31.07
2019-02-21T14:32:35.295Z,30.23
2019-02-21T14:35:07.782Z,30.53
2019-02-21T14:37:39.525Z,32.67
2019-02-21T14:40:13.163Z,30.20
2019-02-21T14:42:45.083Z,32.07
2019-02-21T14:45:18.226Z,33.20
2019-02-21T14:47:49.685Z,33.20
2019-02-21T14:50:21.162Z,34.30
2019-02-21T14:52:52.789Z,34.97
2019-02-21T14:55:31.956Z,36.90
2019-02-21T14:58:05.121Z,33.77
2019-02-21T15:00:36.720Z,35.70
2019-02-21T15:03:08.260Z,33.47
2019-02-21T15:05:39.866Z,34.13
2019-02-21T15:08:11.412Z,34.63
2019-02-21T15:10:42.958Z,34.30
2019-02-21T15:13:14.497Z,36.97
2019-02-21T15:15:46.163Z,37.10
2019-02-21T15:18:17.888Z,34.37
2019-02-21T15:20:49.757Z,41.93
2019-02-21T15:23:21.467Z,37.40
2019-02-21T15:25:53.646Z,35.83
2019-02-21T15:28:30.595Z,32.90
2019-02-21T15:31:02.209Z,35.83
2019-02-21T15:33:36.395Z,36.07
2019-02-21T15:36:08.009Z,36.77
2019-02-21T15:38:39.600Z,35.93
2019-02-21T15:41:11.134Z,36.33
2019-02-21T15:43:42.623Z,36.10
2019-02-21T15:46:14.180Z,34.97
2019-02-21T15:48:45.666Z,32.93
2019-02-21T15:51:17.507Z,32.53
2019-02-21T15:53:50.484Z,30.53
2019-02-21T15:56:22.044Z,34.50
2019-02-21T15:58:53.555Z,34.60
2019-02-21T16:01:47.548Z,37.07
2019-02-21T16:04:29.655Z,33.23
2019-02-21T16:07:01.161Z,32.23
2019-02-21T16:09:32.656Z,33.97
2019-02-21T16:12:05.759Z,31.37
2019-02-21T16:14:37.857Z,30.60
2019-02-21T16:17:09.574Z,33.40
2019-02-21T16:19:41.114Z,28.30
2019-02-21T16:22:12.806Z,32.83
2019-02-21T16:24:44.288Z,29.50
2019-02-21T16:27:16.912Z,33.40
2019-02-21T16:29:48.572Z,31.63
2019-02-21T16:32:20.093Z,32.97
2019-02-21T16:34:51.607Z,30.83
2019-02-21T16:37:23.065Z,31.10
2019-02-21T16:39:55.536Z,27.17
2019-02-21T16:42:27.990Z,26.03
2019-02-21T16:44:59.582Z,28.70
2019-02-21T16:47:31.223Z,25.93
2019-02-21T16:50:05.549Z,24.73
2019-02-21T16:52:37.312Z,26.20
2019-02-21T16:55:11.781Z,26.00
2019-02-21T16:57:44.245Z,24.20
2019-02-21T17:00:17.277Z,19.07
2019-02-21T17:02:48.811Z,22.77
2019-02-21T17:05:20.281Z,20.43
2019-02-21T17:07:52.460Z,21.90
2019-02-21T17:10:24.026Z,20.77
2019-02-21T17:13:06.252Z,20.30
2019-02-21T17:15:37.958Z,18.37
2019-02-21T17:18:09.606Z,19.10
2019-02-21T17:20:41.212Z,17.47
2019-02-21T17:23:22.550Z,17.80
2019-02-21T17:25:46.261Z,17.57
2019-02-21T17:28:19.346Z,17.37
2019-02-21T17:30:50.855Z,16.10
2019-02-21T17:33:22.388Z,15.50
2019-02-21T17:35:54.030Z,15.40
2019-02-21T17:38:25.556Z,15.77
2019-02-21T17:40:57.038Z,15.37
2019-02-21T17:43:28.779Z,15.40
2019-02-21T17:46:00.231Z,14.77
2019-02-21T17:48:31.971Z,16.97
2019-02-21T17:51:03.434Z,14.60
2019-02-21T17:53:34.960Z,19.13
2019-02-21T17:56:06.700Z,17.40
2019-02-21T17:58:40.320Z,18.10
2019-02-21T18:01:11.820Z,19.63
2019-02-21T18:03:43.415Z,17.83
2019-02-21T18:06:14.956Z,20.50
2019-02-21T18:08:46.491Z,19.97
2019-02-21T18:11:18.020Z,20.37
2019-02-21T18:13:49.690Z,21.50
2019-02-21T18:16:23.018Z,20.53
2019-02-21T18:18:54.562Z,21.73
2019-02-21T18:21:27.116Z,24.17
2019-02-21T18:24:01.500Z,23.83
2019-02-21T18:26:35.142Z,25.00
2019-02-21T18:29:07.264Z,21.07
2019-02-21T18:31:38.885Z,23.60
2019-02-21T18:34:10.374Z,17.13
2019-02-21T18:36:41.853Z,18.23
2019-02-21T18:39:13.360Z,21.43
2019-02-21T18:41:45.014Z,21.77
2019-02-21T18:44:16.622Z,22.10
2019-02-21T18:46:48.229Z,20.30
2019-02-21T18:49:19.853Z,21.77
2019-02-21T18:51:51.740Z,20.27
2019-02-21T18:54:25.348Z,19.87
2019-02-21T18:56:57.072Z,18.83
2019-02-21T18:59:31.719Z,19.43
2019-02-21T19:02:02.067Z,19.43
2019-02-21T19:04:34.122Z,17.50
2019-02-21T19:07:05.843Z,18.40
2019-02-21T19:09:37.490Z,17.97
2019-02-21T19:12:10.208Z,19.50
2019-02-21T19:14:43.543Z,17.50
2019-02-21T19:17:15.082Z,15.43
2019-02-21T19:19:46.694Z,17.27
2019-02-21T19:22:18.222Z,18.50
2019-02-21T19:24:49.716Z,18.40
2019-02-21T19:27:21.204Z,20.43
2019-02-21T19:29:52.758Z,20.47
2019-02-21T19:32:30.254Z,19.30
2019-02-21T19:35:02.028Z,21.70
2019-02-21T19:37:35.589Z,20.83
2019-02-21T19:40:08.158Z,20.27
2019-02-21T19:42:41.154Z,20.80
2019-02-21T19:45:12.695Z,21.07
2019-02-21T19:47:44.234Z,19.40
2019-02-21T19:50:15.820Z,22.70
2019-02-21T19:52:47.474Z,20.53
2019-02-21T19:55:19.021Z,23.13
2019-02-21T19:57:51.497Z,24.63
2019-02-21T20:00:29.459Z,24.00
2019-02-21T20:03:01.555Z,20.40
2019-02-21T20:05:35.886Z,25.00
2019-02-21T20:08:09.054Z,24.47
2019-02-21T20:10:44.070Z,24.07
2019-02-21T20:13:15.545Z,22.97
2019-02-21T20:15:47.471Z,23.00
2019-02-21T20:18:19.094Z,26.00
2019-02-21T20:20:50.668Z,19.10
2019-02-21T20:23:22.222Z,23.83
2019-02-21T20:25:55.491Z,23.97
2019-02-21T20:28:27.174Z,21.03
2019-02-21T20:31:00.183Z,25.23
2019-02-21T20:33:31.793Z,26.93
2019-02-21T20:36:03.368Z,27.50
2019-02-21T20:38:35.158Z,22.63
2019-02-21T20:41:06.813Z,26.83
2019-02-21T20:43:40.461Z,27.97
2019-02-21T20:46:12.696Z,21.63
2019-02-21T20:48:45.030Z,29.10
2019-02-21T20:51:16.627Z,29.10
2019-02-21T20:53:48.877Z,28.30
2019-02-21T20:56:20.482Z,28.73
2019-02-21T20:58:51.987Z,30.90
2019-02-21T21:01:23.849Z,33.70
2019-02-21T21:03:55.358Z,32.90
2019-02-21T21:06:27.063Z,26.83
2019-02-21T21:09:00.220Z,32.13
2019-02-21T21:11:33.411Z,29.77
2019-02-21T21:14:05.443Z,33.77
2019-02-21T21:16:37.030Z,33.87
2019-02-21T21:19:08.522Z,34.43
2019-02-21T21:21:41.620Z,32.17
2019-02-21T21:24:14.585Z,34.77
2019-02-21T21:26:47.157Z,31.37
2019-02-21T21:29:22.257Z,33.77
2019-02-21T21:31:59.283Z,32.10
2019-02-21T21:34:30.994Z,32.97
2019-02-21T21:37:02.620Z,31.80
2019-02-21T21:39:34.276Z,33.50
2019-02-21T21:42:08.259Z,30.93
2019-02-21T21:44:39.122Z,30.60
2019-02-21T21:47:10.829Z,30.93
2019-02-21T21:49:42.376Z,31.13
2019-02-21T21:52:13.951Z,25.77
2019-02-21T21:54:45.400Z,33.90
2019-02-21T21:57:16.887Z,32.00
2019-02-21T21:59:48.422Z,31.70
2019-02-21T22:02:20.083Z,32.53
2019-02-21T22:04:51.617Z,30.17
2019-02-21T22:07:23.621Z,33.00
2019-02-21T22:09:55.354Z,25.43
2019-02-21T22:12:30.115Z,31.83
2019-02-21T22:15:02.848Z,35.80
2019-02-21T22:17:35.957Z,36.07
2019-02-21T22:20:07.984Z,39.03
2019-02-21T22:22:39.498Z,36.83
2019-02-21T22:25:11.874Z,32.17
2019-02-21T22:27:45.374Z,33.50
2019-02-21T22:30:17.722Z,35.40
2019-02-21T22:32:49.205Z,35.50
2019-02-21T22:35:20.665Z,34.20
2019-02-21T22:37:53.721Z,36.97
2019-02-21T22:40:28.480Z,32.33
2019-02-21T22:43:08.779Z,34.70
2019-02-21T22:45:49.187Z,37.03
2019-02-21T22:48:20.693Z,39.37
2019-02-21T22:50:52.258Z,39.03
2019-02-21T22:53:23.759Z,35.90
2019-02-21T22:55:55.226Z,39.13
2019-02-21T22:58:29.733Z,30.17
2019-02-21T23:01:29.232Z,39.50
2019-02-21T23:04:28.768Z,36.63
2019-02-21T23:07:40.760Z,28.30
2019-02-21T23:10:22.302Z,36.50
2019-02-21T23:13:00.908Z,34.27
2019-02-21T23:15:43.111Z,39.23
2019-02-21T23:18:19.888Z,40.93
2019-02-21T23:21:14.263Z,33.10
2019-02-21T23:23:49.530Z,35.20
2019-02-21T23:26:46.723Z,35.50
2019-02-21T23:29:19.800Z,35.40
2019-02-21T23:31:51.340Z,33.37
2019-02-21T23:34:33.538Z,36.40
2019-02-21T23:37:05.268Z,30.90
2019-02-21T23:39:41.638Z,37.37
2019-02-21T23:43:14.870Z,30.60
2019-02-21T23:45:46.480Z,31.90
2019-02-21T23:48:17.945Z,34.37
2019-02-21T23:50:49.554Z,34.30
2019-02-21T23:53:21.090Z,33.13
2019-02-21T23:55:52.529Z,32.43
2019-02-21T23:58:24.024Z,33.10
